Al Mirqab — ZCTS4 — position and weather

sailwx.info

Track history (hours):
 
Tides and Currents Weather Stations Pressure Air Temp Water Temp Dewpoint Dewpoint Depression Visibility Wind Speed Wind Dir Waves Ship Positions

Al Mirqab

Last reported at 2016-Aug-21 22:13 UTC. Time now 2016-Sep-25 15:42 UTC.
Position N 37°53' E 015°59'.
Warning: this ship's position is 34 days out of date.

Length 133 m; draft 5.2 m.

Type: Pleasure craft. MMSI: 319361000.

Date/timePositionNaut miles runAvg speedWind from/ knotsBaromVisibWave heightAir tempDewpointWater temp
2016-Aug-21 22:13N 37°53' E 015°59'1217.7
2016-Aug-21 21:33N 37°54' E 015°44'1616.2
2016-Aug-21 20:33N 38°09' E 015°35'1010.4
2016-Aug-21 19:33N 38°19' E 015°34'1818.3
2016-Aug-21 18:33N 38°21' E 015°11'2317.1
2016-Aug-21 17:11N 38°29' E 014°43'93 9.3
2016-Aug-21 07:12N 38°40' E 012°45'1117.2
2016-Aug-21 06:34N 38°41' E 012°31'8617.1
2016-Aug-21 01:32N 38°45' E 010°41'7717.3
2016-Aug-20 21:05N 38°49' E 009°02'83 5.6
2016-Aug-20 06:22N 39°36' E 007°34'2712.7
2016-Aug-20 04:16N 39°38' E 006°59'3712.5
2016-Aug-20 01:18N 39°40' E 006°12'2312.7
2016-Aug-19 23:28N 39°42' E 005°41'2612.8
2016-Aug-19 21:26N 39°44' E 005°08'3014.1
2016-Aug-19 19:20N 39°46' E 004°29'1215.2
2016-Aug-19 18:33N 39°48' E 004°14'12 1.3
2016-Aug-19 09:31N 39°51' E 003°59'1212.6
2016-Aug-19 08:33N 39°43' E 003°47'1312.6
2016-Aug-19 07:33N 39°34' E 003°35'1312.6
2016-Aug-19 06:31N 39°25' E 003°23'1414.5
2016-Aug-19 05:33N 39°17' E 003°09'1414.4
2016-Aug-19 04:33N 39°18' E 002°50'1414.5
2016-Aug-19 03:33N 39°30' E 002°40'4 3.9
2016-Aug-19 02:31N 39°33' E 002°38'0 0.0
2016-Aug-19 01:32N 39°33' E 002°38'0 0.0
2016-Aug-19 00:33N 39°33' E 002°38'0 0.0
2016-Aug-18 23:33N 39°33' E 002°38'0 0.0
2016-Aug-18 22:31N 39°33' E 002°38'0 0.0
2016-Aug-18 21:32N 39°33' E 002°38'0 0.0
2016-Aug-18 20:32N 39°33' E 002°38'0 0.1
2016-Aug-18 19:33N 39°33' E 002°38'1010.1
2016-Aug-18 18:34N 39°25' E 002°30'1515.4
2016-Aug-18 17:33N 39°17' E 002°14'1615.5
2016-Aug-18 16:33N 39°08' E 001°57'1615.5
2016-Aug-18 15:33N 38°60' E 001°40'12 0.5
2016-Aug-17 17:22N 38°54' E 001°26'7 8.6
2016-Aug-17 16:33N 38°47' E 001°24'2 1.6
2016-Aug-17 15:10N 38°45' E 001°26'0 0.0
2016-Aug-17 12:29N 38°45' E 001°26'2 0.7
2016-Aug-17 09:27N 38°44' E 001°23'6 6.6
2016-Aug-17 08:33N 38°39' E 001°25'12 9.7
2016-Aug-17 07:16N 38°42' E 001°41'8 9.7
2016-Aug-17 06:28N 38°48' E 001°47'9 9.6
2016-Aug-17 05:33N 38°54' E 001°55'10 9.6
2016-Aug-17 04:33N 39°01' E 002°03'10 9.7
2016-Aug-17 03:33N 39°09' E 002°11'10 9.8
2016-Aug-17 02:33N 39°16' E 002°20'10 9.8
2016-Aug-17 01:33N 39°23' E 002°28'10 9.8
2016-Aug-17 00:33N 39°30' E 002°37'3 3.1
2016-Aug-16 23:33N 39°33' E 002°38'0 0.0
2016-Aug-16 22:33N 39°33' E 002°38'0 0.0
2016-Aug-16 21:31N 39°33' E 002°38'0 0.0
2016-Aug-16 20:32N 39°33' E 002°38'0 0.0
2016-Aug-16 19:32N 39°33' E 002°38'0 0.0
2016-Aug-16 18:33N 39°33' E 002°38'0 0.0
2016-Aug-16 17:31N 39°33' E 002°38'0 0.0
2016-Aug-16 16:31N 39°33' E 002°38'0 0.0
2016-Aug-16 15:32N 39°33' E 002°38'0 0.0
2016-Aug-16 14:33N 39°33' E 002°38'0 0.0
2016-Aug-16 13:33N 39°33' E 002°38'0 0.0
2016-Aug-16 12:31N 39°33' E 002°38'0 0.0
2016-Aug-16 11:32N 39°33' E 002°38'0 0.0
2016-Aug-16 10:32N 39°33' E 002°38'0 0.0
2016-Aug-16 09:33N 39°33' E 002°38'0 0.0
2016-Aug-16 08:31N 39°33' E 002°38'0 0.0
2016-Aug-16 07:34N 39°33' E 002°38'23 7.7
2016-Aug-16 04:33N 39°16' E 002°57'10 9.1
2016-Aug-16 03:26N 39°17' E 003°10'19 9.7
2016-Aug-16 01:31N 39°31' E 003°26'12 9.6
2016-Aug-16 00:15N 39°42' E 003°31'8 8.9
2016-Aug-15 23:19N 39°49' E 003°25'10 0.6
2016-Aug-15 06:17N 39°54' E 003°14'11 6.5
2016-Aug-15 04:33N 39°53' E 003°28'15 7.0
2016-Aug-15 02:23N 39°50' E 003°48'8 6.6
2016-Aug-15 01:11N 39°49' E 003°58'4 6.8
2016-Aug-15 00:33N 39°48' E 004°03'7 6.9
2016-Aug-14 23:33N 39°47' E 004°12'4 0.6
2016-Aug-14 16:34N 39°47' E 004°18'  
Track history (hours):
 
Tides and Currents Weather Stations Pressure Air Temp Water Temp Dewpoint Dewpoint Depression Visibility Wind Speed Wind Dir Waves Ship Positions

Al Mirqab

Last reported at 2016-Aug-21 22:13 UTC. Time now 2016-Sep-25 15:42 UTC.
Position N 37°53' E 015°59'.
Warning: this ship's position is 34 days out of date.

Length 133 m; draft 5.2 m.

Type: Pleasure craft. MMSI: 319361000.

Date/timePositionNaut miles runAvg speedWind from/ knotsBaromVisibWave heightAir tempDewpointWater temp
2016-Aug-21 22:13N 37°53' E 015°59'1217.7
2016-Aug-21 21:33N 37°54' E 015°44'1616.2
2016-Aug-21 20:33N 38°09' E 015°35'1010.4
2016-Aug-21 19:33N 38°19' E 015°34'1818.3
2016-Aug-21 18:33N 38°21' E 015°11'2317.1
2016-Aug-21 17:11N 38°29' E 014°43'93 9.3
2016-Aug-21 07:12N 38°40' E 012°45'1117.2
2016-Aug-21 06:34N 38°41' E 012°31'8617.1
2016-Aug-21 01:32N 38°45' E 010°41'7717.3
2016-Aug-20 21:05N 38°49' E 009°02'83 5.6
2016-Aug-20 06:22N 39°36' E 007°34'2712.7
2016-Aug-20 04:16N 39°38' E 006°59'3712.5
2016-Aug-20 01:18N 39°40' E 006°12'2312.7
2016-Aug-19 23:28N 39°42' E 005°41'2612.8
2016-Aug-19 21:26N 39°44' E 005°08'3014.1
2016-Aug-19 19:20N 39°46' E 004°29'1215.2
2016-Aug-19 18:33N 39°48' E 004°14'12 1.3
2016-Aug-19 09:31N 39°51' E 003°59'1212.6
2016-Aug-19 08:33N 39°43' E 003°47'1312.6
2016-Aug-19 07:33N 39°34' E 003°35'1312.6
2016-Aug-19 06:31N 39°25' E 003°23'1414.5
2016-Aug-19 05:33N 39°17' E 003°09'1414.4
2016-Aug-19 04:33N 39°18' E 002°50'1414.5
2016-Aug-19 03:33N 39°30' E 002°40'4 3.9
2016-Aug-19 02:31N 39°33' E 002°38'0 0.0
2016-Aug-19 01:32N 39°33' E 002°38'0 0.0
2016-Aug-19 00:33N 39°33' E 002°38'0 0.0
2016-Aug-18 23:33N 39°33' E 002°38'0 0.0
2016-Aug-18 22:31N 39°33' E 002°38'0 0.0
2016-Aug-18 21:32N 39°33' E 002°38'0 0.0
2016-Aug-18 20:32N 39°33' E 002°38'0 0.1
2016-Aug-18 19:33N 39°33' E 002°38'1010.1
2016-Aug-18 18:34N 39°25' E 002°30'1515.4
2016-Aug-18 17:33N 39°17' E 002°14'1615.5
2016-Aug-18 16:33N 39°08' E 001°57'1615.5
2016-Aug-18 15:33N 38°60' E 001°40'12 0.5
2016-Aug-17 17:22N 38°54' E 001°26'7 8.6
2016-Aug-17 16:33N 38°47' E 001°24'2 1.6
2016-Aug-17 15:10N 38°45' E 001°26'0 0.0
2016-Aug-17 12:29N 38°45' E 001°26'2 0.7
2016-Aug-17 09:27N 38°44' E 001°23'6 6.6
2016-Aug-17 08:33N 38°39' E 001°25'12 9.7
2016-Aug-17 07:16N 38°42' E 001°41'8 9.7
2016-Aug-17 06:28N 38°48' E 001°47'9 9.6
2016-Aug-17 05:33N 38°54' E 001°55'10 9.6
2016-Aug-17 04:33N 39°01' E 002°03'10 9.7
2016-Aug-17 03:33N 39°09' E 002°11'10 9.8
2016-Aug-17 02:33N 39°16' E 002°20'10 9.8
2016-Aug-17 01:33N 39°23' E 002°28'10 9.8
2016-Aug-17 00:33N 39°30' E 002°37'3 3.1
2016-Aug-16 23:33N 39°33' E 002°38'0 0.0
2016-Aug-16 22:33N 39°33' E 002°38'0 0.0
2016-Aug-16 21:31N 39°33' E 002°38'0 0.0
2016-Aug-16 20:32N 39°33' E 002°38'0 0.0
2016-Aug-16 19:32N 39°33' E 002°38'0 0.0
2016-Aug-16 18:33N 39°33' E 002°38'0 0.0
2016-Aug-16 17:31N 39°33' E 002°38'0 0.0
2016-Aug-16 16:31N 39°33' E 002°38'0 0.0
2016-Aug-16 15:32N 39°33' E 002°38'0 0.0
2016-Aug-16 14:33N 39°33' E 002°38'0 0.0
2016-Aug-16 13:33N 39°33' E 002°38'0 0.0
2016-Aug-16 12:31N 39°33' E 002°38'0 0.0
2016-Aug-16 11:32N 39°33' E 002°38'0 0.0
2016-Aug-16 10:32N 39°33' E 002°38'0 0.0
2016-Aug-16 09:33N 39°33' E 002°38'0 0.0
2016-Aug-16 08:31N 39°33' E 002°38'0 0.0
2016-Aug-16 07:34N 39°33' E 002°38'23 7.7
2016-Aug-16 04:33N 39°16' E 002°57'10 9.1
2016-Aug-16 03:26N 39°17' E 003°10'19 9.7
2016-Aug-16 01:31N 39°31' E 003°26'12 9.6
2016-Aug-16 00:15N 39°42' E 003°31'8 8.9
2016-Aug-15 23:19N 39°49' E 003°25'10 0.6
2016-Aug-15 06:17N 39°54' E 003°14'11 6.5
2016-Aug-15 04:33N 39°53' E 003°28'15 7.0
2016-Aug-15 02:23N 39°50' E 003°48'8 6.6
2016-Aug-15 01:11N 39°49' E 003°58'4 6.8
2016-Aug-15 00:33N 39°48' E 004°03'7 6.9
2016-Aug-14 23:33N 39°47' E 004°12'4 0.6
2016-Aug-14 16:34N 39°47' E 004°18'  

Dump ship's entire track history